Time;durP1;ratioP1;P1;durP2;ratioP2;P2;SDS_P1;SDS_P2;PMS_P1;PMS_P2;Temp;Humidity;BMP_temperature;BMP_pressure;BME280_temperature;BME280_humidity;BME280_pressure;Samples;Min_cycle;Max_cycle;Signal;HPM_P1;HPM_P2
2022/05/15 00:02:40;;;;;;;0.40;0.40;;;15.40;99.90;15.90;101821.00;;;;5116216;28;20227;-70
2022/05/15 00:05:07;;;;;;;0.40;0.40;;;15.60;99.90;15.70;101814.00;;;;5096154;28;20194;-71
2022/05/15 00:07:35;;;;;;;0.40;0.40;;;15.70;99.90;15.50;101811.00;;;;5094503;28;20639;-71
2022/05/15 00:10:05;;;;;;;0.40;0.40;;;15.70;99.90;15.30;101804.00;;;;5076342;28;20219;-71
2022/05/15 00:12:31;;;;;;;0.40;0.40;;;15.60;99.90;15.60;101806.00;;;;5094218;28;20575;-71
2022/05/15 00:14:57;;;;;;;0.40;0.40;;;15.60;99.90;15.30;101800.00;;;;5077623;28;20635;-71
2022/05/15 00:17:23;;;;;;;0.40;0.40;;;15.50;99.90;15.60;101806.00;;;;5076833;28;20237;-71
2022/05/15 00:19:53;;;;;;;0.40;0.40;;;15.60;99.90;15.70;101800.00;;;;5095556;28;20262;-72
2022/05/15 00:22:25;;;;;;;0.40;0.40;;;15.60;99.90;15.30;101792.00;;;;5092898;28;20181;-71
2022/05/15 00:24:51;;;;;;;0.70;0.70;;;15.50;99.90;15.10;101795.00;;;;5094435;28;20239;-72
2022/05/15 00:27:17;;;;;;;0.40;0.40;;;15.40;99.90;15.20;101795.00;;;;5077561;28;20173;-71
2022/05/15 00:29:45;;;;;;;0.40;0.40;;;15.30;99.90;15.50;101805.00;;;;5094177;28;20263;-71
2022/05/15 00:32:11;;;;;;;0.40;0.40;;;15.40;99.90;15.50;101768.00;;;;5076035;28;20233;-71
2022/05/15 00:34:37;;;;;;;0.50;0.50;;;15.50;99.90;15.80;101782.00;;;;5093927;28;20271;-71
2022/05/15 00:37:03;;;;;;;0.40;0.40;;;15.60;99.90;15.20;101796.00;;;;5077251;28;20185;-72
2022/05/15 00:39:33;;;;;;;0.50;0.50;;;15.50;99.90;15.00;101769.00;;;;5094128;28;20180;-72
2022/05/15 00:41:58;;;;;;;0.40;0.40;;;15.30;99.90;15.20;101807.00;;;;5092449;28;20186;-72
2022/05/15 00:44:25;;;;;;;0.83;0.83;;;15.20;99.90;15.30;101781.00;;;;5081476;28;20187;-75
2022/05/15 00:46:51;;;;;;;0.50;0.50;;;15.30;99.90;14.60;101796.00;;;;5114283;28;20191;-72
2022/05/15 00:49:17;;;;;;;0.40;0.40;;;15.10;99.90;14.50;101798.00;;;;5095518;28;20187;-73
2022/05/15 00:52:12;;;;;;;0.40;0.40;;;15.00;99.90;15.20;101807.00;;;;5097102;28;20207;-72
2022/05/15 00:54:46;;;;;;;0.40;0.40;;;15.10;99.90;14.80;101759.00;;;;5086324;28;20196;-71
2022/05/15 00:57:26;;;;;;;0.40;0.40;;;15.00;99.90;14.70;101791.00;;;;5114121;28;20293;-73
2022/05/15 01:00:20;;;;;;;0.53;0.53;;;14.90;99.90;14.50;101784.00;;;;5113692;28;20187;-72
2022/05/15 01:03:03;;;;;;;0.40;0.40;;;14.90;99.90;14.30;101787.00;;;;5096149;28;20202;-72
2022/05/15 01:05:32;;;;;;;0.60;0.60;;;14.80;99.90;14.80;101774.00;;;;5113703;28;20182;-72
2022/05/15 01:07:58;;;;;;;0.40;0.40;;;14.80;99.90;15.20;101790.00;;;;5094787;28;20178;-72
2022/05/15 01:10:24;;;;;;;0.50;0.50;;;15.10;99.90;14.70;101789.00;;;;5113986;28;20183;-70
2022/05/15 01:12:53;;;;;;;0.40;0.40;;;15.00;99.90;14.50;101787.00;;;;5113773;28;20260;-71
2022/05/15 01:15:23;;;;;;;0.40;0.40;;;14.90;99.90;14.90;101796.00;;;;5113643;28;20183;-72
2022/05/15 01:17:50;;;;;;;0.40;0.40;;;14.90;99.90;15.10;101786.00;;;;5113776;28;20241;-71
2022/05/15 01:20:21;;;;;;;0.40;0.40;;;15.00;99.90;15.00;101791.00;;;;5114229;28;20186;-72
2022/05/15 01:22:47;;;;;;;0.40;0.40;;;15.10;99.90;14.40;101783.00;;;;5114397;28;20216;-72
2022/05/15 01:25:21;;;;;;;0.50;0.50;;;14.90;99.90;14.60;101781.00;;;;5095941;28;20186;-72
2022/05/15 01:28:09;;;;;;;0.60;0.60;;;14.80;99.90;14.50;101787.00;;;;5095583;28;20186;-71
2022/05/15 01:30:39;;;;;;;0.50;0.50;;;14.70;99.90;15.10;101780.00;;;;5094011;28;20177;-70
2022/05/15 01:33:05;;;;;;;0.60;0.60;;;15.10;99.90;14.50;101746.00;;;;5112065;28;20229;-70
2022/05/15 01:35:31;;;;;;;0.40;0.40;;;14.90;99.90;14.20;101774.00;;;;5113318;28;20238;-70
2022/05/15 01:37:57;;;;;;;0.50;0.50;;;14.70;99.90;14.40;101784.00;;;;5111382;28;20178;-70
2022/05/15 01:40:23;;;;;;;0.60;0.60;;;14.60;99.90;14.20;101779.00;;;;5096033;28;20180;-70
2022/05/15 01:42:48;;;;;;;0.47;0.47;;;14.50;99.90;14.30;101781.00;;;;5094370;28;20186;-73
2022/05/15 01:45:18;;;;;;;0.53;0.53;;;14.50;99.90;14.50;101741.00;;;;5094763;28;20536;-72
2022/05/15 01:47:44;;;;;;;1.03;0.87;;;14.50;99.90;14.20;101763.00;;;;5113229;28;20185;-72
2022/05/15 01:50:12;;;;;;;0.40;0.40;;;14.50;99.90;14.50;101775.00;;;;5112014;28;20691;-72
2022/05/15 01:52:38;;;;;;;0.40;0.40;;;14.50;99.90;14.40;101783.00;;;;5094015;28;20210;-72
2022/05/15 01:55:08;;;;;;;0.50;0.50;;;14.50;99.90;14.50;101768.00;;;;5095071;28;20654;-72
2022/05/15 01:57:34;;;;;;;4.57;2.10;;;14.50;99.90;13.90;101761.00;;;;5112784;28;20175;-72
2022/05/15 02:00:00;;;;;;;0.90;0.90;;;14.40;99.90;14.00;101760.00;;;;5111039;28;20179;-73
2022/05/15 02:02:31;;;;;;;0.70;0.70;;;14.40;99.90;13.90;101756.00;;;;5111914;28;20213;-72
2022/05/15 02:04:57;;;;;;;0.40;0.40;;;14.30;99.90;13.90;101766.00;;;;5112672;28;20630;-72
2022/05/15 02:07:23;;;;;;;0.50;0.50;;;14.30;99.90;14.50;101781.00;;;;5112746;28;20266;-72
2022/05/15 02:09:49;;;;;;;1.37;1.33;;;14.40;99.90;14.30;101765.00;;;;5093531;28;20174;-72
2022/05/15 02:12:17;;;;;;;0.53;0.53;;;14.40;99.90;14.70;101762.00;;;;5093413;28;20184;-73
2022/05/15 02:14:46;;;;;;;0.40;0.40;;;14.50;99.90;14.40;101762.00;;;;5111729;28;20186;-72
2022/05/15 02:17:12;;;;;;;0.50;0.50;;;14.50;99.90;14.50;101762.00;;;;5095467;28;20211;-72
2022/05/15 02:19:38;;;;;;;0.40;0.40;;;14.50;99.90;14.40;101753.00;;;;5093731;28;20570;-72
2022/05/15 02:22:04;;;;;;;0.50;0.50;;;14.50;99.90;14.50;101753.00;;;;5113306;28;20657;-72
2022/05/15 02:24:31;;;;;;;0.63;0.63;;;14.50;99.90;14.10;101750.00;;;;5094773;28;20260;-72
2022/05/15 02:26:57;;;;;;;0.50;0.50;;;14.40;99.90;14.00;101752.00;;;;5095337;28;20649;-72
2022/05/15 02:29:23;;;;;;;0.40;0.40;;;14.30;99.90;14.30;101750.00;;;;5094193;28;20178;-72
2022/05/15 02:31:49;;;;;;;0.40;0.40;;;14.30;99.90;14.10;101736.00;;;;5093692;28;20594;-72
2022/05/15 02:34:14;;;;;;;0.40;0.40;;;14.20;99.90;13.80;101736.00;;;;5095043;28;20180;-72
2022/05/15 02:36:40;;;;;;;6.70;3.93;;;14.20;99.90;13.90;101744.00;;;;5112495;28;20200;-72
2022/05/15 02:39:06;;;;;;;0.40;0.40;;;14.10;99.90;14.00;101751.00;;;;5110822;28;20189;-72
2022/05/15 02:41:35;;;;;;;0.40;0.40;;;14.10;99.90;14.00;101747.00;;;;5095276;28;20659;-72
2022/05/15 02:44:04;;;;;;;0.50;0.50;;;14.20;99.90;13.90;101743.00;;;;5112796;28;20177;-72
2022/05/15 02:46:32;;;;;;;0.63;0.63;;;14.10;99.90;14.00;101733.00;;;;5095431;28;20192;-72
2022/05/15 02:51:43;;;;;;;0.40;0.40;;;14.10;99.90;14.20;101735.00;;;;5112033;28;20187;-72
2022/05/15 02:54:08;;;;;;;0.70;0.70;;;14.10;99.90;14.40;101745.00;;;;5113352;28;20250;-71
2022/05/15 02:56:37;;;;;;;0.40;0.40;;;14.30;99.90;14.10;101737.00;;;;5111875;28;20182;-71
2022/05/15 02:59:04;;;;;;;0.40;0.40;;;14.30;99.90;14.70;101746.00;;;;5110715;28;20276;-71
2022/05/15 03:01:30;;;;;;;0.40;0.40;;;14.50;99.90;14.30;101750.00;;;;5112182;28;20684;-71
2022/05/15 03:03:59;;;;;;;0.40;0.40;;;14.50;99.90;13.90;101747.00;;;;5112073;28;20266;-71
2022/05/15 03:06:25;;;;;;;0.40;0.40;;;14.20;99.90;13.90;101742.00;;;;5094830;28;20174;-71
2022/05/15 03:08:52;;;;;;;0.73;0.73;;;14.10;99.90;14.00;101740.00;;;;5110944;28;20201;-71
2022/05/15 03:11:19;;;;;;;0.63;0.63;;;14.10;99.90;13.90;101730.00;;;;5111532;28;20179;-71
2022/05/15 03:13:45;;;;;;;0.50;0.50;;;14.00;99.90;14.30;101731.00;;;;5112796;28;20187;-71
2022/05/15 03:16:13;;;;;;;0.50;0.50;;;14.10;99.90;14.10;101735.00;;;;5111399;28;20191;-71
2022/05/15 03:18:50;;;;;;;0.70;0.70;;;14.20;99.90;14.20;101719.00;;;;5114859;28;20185;-71
2022/05/15 03:21:29;;;;;;;0.73;0.73;;;14.20;99.90;14.00;101716.00;;;;5115590;28;20201;-71
2022/05/15 03:24:07;;;;;;;1.23;1.23;;;14.20;99.90;14.20;101677.00;;;;5114267;28;20212;-71
2022/05/15 03:26:41;;;;;;;0.50;0.50;;;14.20;99.90;14.20;101682.00;;;;5098611;28;20551;-70
2022/05/15 03:29:08;;;;;;;0.40;0.40;;;14.10;99.90;14.10;101678.00;;;;5116882;28;20644;-71
2022/05/15 03:31:39;;;;;;;0.90;0.90;;;14.30;99.90;14.20;101713.00;;;;5114610;28;20197;-71
2022/05/15 03:34:08;;;;;;;0.40;0.40;;;14.30;99.90;13.90;101717.00;;;;5098291;28;20194;-71
2022/05/15 03:36:39;;;;;;;0.40;0.40;;;14.20;99.90;14.20;101666.00;;;;5115779;28;20178;-71
2022/05/15 03:39:07;;;;;;;1.37;1.33;;;14.20;99.90;14.10;101680.00;;;;5115578;28;20178;-71
2022/05/15 03:41:34;;;;;;;3.70;3.50;;;14.20;99.90;14.40;101709.00;;;;5115421;28;20563;-71
2022/05/15 03:44:01;;;;;;;1.13;1.13;;;14.30;99.90;14.30;101704.00;;;;5113752;28;20178;-71
2022/05/15 03:46:27;;;;;;;0.47;0.47;;;14.30;99.90;14.40;101717.00;;;;5114889;28;20182;-71
2022/05/15 03:48:56;;;;;;;0.40;0.40;;;14.40;99.90;14.10;101712.00;;;;5098358;28;20530;-71
2022/05/15 03:51:22;;;;;;;0.57;0.57;;;14.30;99.90;14.10;101709.00;;;;5098444;28;20227;-71
2022/05/15 03:53:48;;;;;;;0.40;0.40;;;14.20;99.90;13.80;101703.00;;;;5097722;28;20290;-71
2022/05/15 03:56:14;;;;;;;0.40;0.40;;;14.10;99.90;13.70;101697.00;;;;5116400;28;20206;-71
2022/05/15 03:58:40;;;;;;;0.80;0.80;;;13.90;99.90;13.90;101695.00;;;;5115146;28;20619;-72
2022/05/15 04:01:06;;;;;;;0.40;0.40;;;14.00;99.90;13.70;101696.00;;;;5113481;28;20185;-70
2022/05/15 04:03:33;;;;;;;0.40;0.40;;;13.90;99.90;13.90;101714.00;;;;5113444;28;20547;-70
2022/05/15 04:05:59;;;;;;;0.67;0.67;;;14.00;99.90;13.70;101709.00;;;;5115199;28;20187;-71
2022/05/15 04:08:27;;;;;;;0.37;0.37;;;14.00;99.90;13.80;101715.00;;;;5113079;28;20228;-71
2022/05/15 04:10:55;;;;;;;0.50;0.50;;;14.00;99.90;13.80;101712.00;;;;5114670;28;20186;-72
2022/05/15 04:13:23;;;;;;;0.50;0.50;;;13.90;99.90;14.10;101681.00;;;;5114710;28;20259;-72
2022/05/15 04:15:50;;;;;;;0.50;0.50;;;14.00;99.90;14.10;101714.00;;;;5114943;28;20189;-72
2022/05/15 04:18:16;;;;;;;0.50;0.50;;;14.10;99.90;14.40;101713.00;;;;5114420;28;20178;-72
2022/05/15 04:20:42;;;;;;;0.40;0.40;;;14.10;99.90;14.40;101721.00;;;;5114922;28;20186;-72
2022/05/15 04:23:09;;;;;;;1.00;0.90;;;14.20;99.90;13.60;101713.00;;;;5097266;28;20215;-72
2022/05/15 04:25:35;;;;;;;0.40;0.40;;;14.10;99.90;14.30;101714.00;;;;5114742;28;20177;-72
2022/05/15 04:28:00;;;;;;;0.40;0.40;;;14.10;99.90;14.50;101719.00;;;;5115752;28;20215;-72
2022/05/15 04:30:27;;;;;;;0.40;0.40;;;14.30;99.90;14.30;101715.00;;;;5097016;28;20268;-72
2022/05/15 04:32:54;;;;;;;0.50;0.50;;;14.40;99.90;14.50;101719.00;;;;5096923;28;20201;-72
2022/05/15 04:35:23;;;;;;;0.77;0.77;;;14.50;99.90;14.30;101709.00;;;;5114424;28;20622;-72
2022/05/15 04:37:51;;;;;;;0.40;0.40;;;14.40;99.90;14.50;101706.00;;;;5111491;28;20198;-72
2022/05/15 04:40:19;;;;;;;0.50;0.50;;;14.50;99.90;14.60;101678.00;;;;5096277;28;20178;-72
2022/05/15 04:42:45;;;;;;;0.50;0.50;;;14.50;99.90;14.30;101701.00;;;;5115344;28;20206;-72
2022/05/15 04:45:11;;;;;;;0.40;0.40;;;14.50;99.90;14.70;101712.00;;;;5096355;28;20213;-72
2022/05/15 04:47:37;;;;;;;0.50;0.50;;;14.60;99.90;15.10;101702.00;;;;5097172;28;20656;-72
2022/05/15 04:50:04;;;;;;;0.50;0.50;;;14.80;99.90;14.80;101712.00;;;;5097100;28;20183;-72
2022/05/15 04:52:30;;;;;;;0.87;0.87;;;14.90;99.90;14.50;101711.00;;;;5113680;28;20213;-72
2022/05/15 04:54:56;;;;;;;0.37;0.37;;;14.90;99.90;14.30;101701.00;;;;5096168;28;20191;-72
2022/05/15 04:57:27;;;;;;;0.30;0.30;;;14.70;99.90;15.30;101717.00;;;;5096947;28;20184;-72
2022/05/15 04:59:53;;;;;;;0.93;0.93;;;15.20;99.90;16.20;101733.00;;;;5095887;28;20180;-73
2022/05/15 05:02:19;;;;;;;0.40;0.40;;;15.90;99.90;17.10;101739.00;;;;5113130;28;20223;-72
2022/05/15 05:04:45;;;;;;;0.20;0.20;;;16.70;99.90;18.20;101756.00;;;;5095865;28;20183;-72
2022/05/15 05:07:11;;;;;;;0.20;0.20;;;17.50;99.90;19.30;101749.00;;;;5112454;28;20630;-73
2022/05/15 05:09:37;;;;;;;1.13;1.03;;;18.40;99.90;19.50;101791.00;;;;5096664;28;20190;-73
2022/05/15 05:12:03;;;;;;;0.20;0.20;;;18.80;99.90;19.50;101795.00;;;;5113979;28;20210;-73
2022/05/15 05:14:29;;;;;;;0.30;0.30;;;19.00;99.90;20.20;101812.00;;;;5112634;28;20217;-72
2022/05/15 05:16:55;;;;;;;0.77;0.77;;;19.50;99.90;19.30;101808.00;;;;5114440;28;20256;-71
2022/05/15 05:19:21;;;;;;;0.40;0.40;;;19.50;99.90;20.00;101790.00;;;;5096475;28;20224;-72
2022/05/15 05:21:47;;;;;;;0.30;0.30;;;19.70;99.90;18.90;101792.00;;;;5113033;28;20663;-72
2022/05/15 05:24:12;;;;;;;1.10;1.00;;;19.00;99.90;19.60;101779.00;;;;5095860;28;20176;-72
2022/05/15 05:26:41;;;;;;;0.20;0.20;;;19.10;99.90;18.10;101786.00;;;;5113915;28;20229;-72
2022/05/15 05:29:09;;;;;;;0.25;0.25;;;18.40;99.90;17.30;101769.00;;;;5094841;28;20707;-72
2022/05/15 05:31:35;;;;;;;1.95;1.08;;;17.90;99.90;18.10;101784.00;;;;5095948;28;20187;-72
2022/05/15 05:34:01;;;;;;;1.90;1.73;;;18.10;99.90;18.50;101791.00;;;;5095497;28;20204;-72
2022/05/15 05:36:27;;;;;;;0.20;0.20;;;18.30;99.90;18.10;101782.00;;;;5095902;28;20177;-72
2022/05/15 05:38:53;;;;;;;0.50;0.50;;;18.20;99.90;19.30;101803.00;;;;5094527;28;20657;-72
2022/05/15 05:41:19;;;;;;;0.77;0.60;;;18.60;99.90;18.80;101797.00;;;;5095649;28;20208;-72
2022/05/15 05:43:44;;;;;;;1.10;1.05;;;18.60;99.90;18.50;101812.00;;;;5112439;28;20184;-72
2022/05/15 05:46:10;;;;;;;0.43;0.43;;;18.80;99.90;16.90;101746.00;;;;5095821;28;20568;-73
2022/05/15 05:48:36;;;;;;;0.10;0.10;;;17.80;99.90;17.40;101747.00;;;;5096192;28;20214;-72
2022/05/15 05:51:02;;;;;;;1.00;0.70;;;17.70;99.90;18.30;101742.00;;;;5094481;28;20184;-73
2022/05/15 05:53:31;;;;;;;0.47;0.47;;;18.30;99.90;17.80;101791.00;;;;5114425;27;20255;-72
2022/05/15 05:55:56;;;;;;;1.73;1.52;;;18.20;99.90;17.00;101761.00;;;;5113143;28;20631;-70
2022/05/15 05:58:28;;;;;;;0.85;0.85;;;17.70;99.90;18.30;101792.00;;;;5095100;28;20276;-71
2022/05/15 06:00:54;;;;;;;0.75;0.75;;;18.10;99.90;17.40;101793.00;;;;5095225;28;20267;-71
2022/05/15 06:06:09;;;;;;;0.20;0.20;;;18.40;99.90;20.50;101799.00;;;;5112957;28;20275;-71
2022/05/15 06:08:34;;;;;;;0.10;0.10;;;19.60;99.90;17.70;101793.00;;;;5112674;28;20199;-70
2022/05/15 06:11:00;;;;;;;0.20;0.20;;;18.60;99.90;20.10;101825.00;;;;5094698;28;20631;-71
2022/05/15 06:13:27;;;;;;;0.10;0.10;;;19.60;99.90;19.30;101818.00;;;;5094925;28;20278;-70
2022/05/15 06:15:54;;;;;;;0.45;0.45;;;19.60;99.90;19.30;101786.00;;;;5112037;28;20231;-70
2022/05/15 06:18:20;;;;;;;3.53;0.45;;;19.50;99.90;20.20;101832.00;;;;5113183;28;20182;-71
2022/05/15 06:20:48;;;;;;;3.65;1.83;;;19.90;99.90;20.60;101857.00;;;;5094834;28;20270;-70
2022/05/15 06:23:14;;;;;;;0.93;0.93;;;20.60;99.90;19.20;101834.00;;;;5095043;28;20218;-70
2022/05/15 06:25:40;;;;;;;1.63;1.55;;;20.00;99.90;19.60;101822.00;;;;5094031;28;20541;-70
2022/05/15 06:28:06;;;;;;;0.57;0.57;;;19.80;99.90;21.50;101844.00;;;;5095604;28;20213;-70
2022/05/15 06:30:32;;;;;;;0.80;0.57;;;20.90;99.90;24.00;101883.00;;;;5112511;28;20175;-71
2022/05/15 06:32:59;;;;;;;0.10;0.10;;;22.40;99.90;23.80;101879.00;;;;5112268;28;20191;-70
2022/05/15 06:35:25;;;;;;;1.98;1.77;;;23.00;99.90;21.90;101876.00;;;;5112548;28;20232;-70
2022/05/15 06:37:51;;;;;;;1.75;1.33;;;22.90;99.90;21.60;101878.00;;;;5094538;28;20215;-70
2022/05/15 06:40:22;;;;;;;0.45;0.45;;;22.40;99.90;23.20;101887.00;;;;5113558;28;20631;-71
2022/05/15 06:42:52;;;;;;;0.80;0.73;;;22.70;99.90;24.80;101886.00;;;;5095589;28;20230;-71
2022/05/15 06:45:21;;;;;;;0.45;0.45;;;24.00;99.90;25.00;101892.00;;;;5094434;28;20180;-71
2022/05/15 06:47:47;;;;;;;1.10;1.10;;;24.60;99.90;24.70;101881.00;;;;5113253;28;20172;-71
2022/05/15 06:50:13;;;;;;;0.32;0.32;;;24.90;99.90;24.30;101891.00;;;;5112790;28;20187;-71
2022/05/15 06:52:42;;;;;;;1.10;1.00;;;24.00;99.90;24.90;101889.00;;;;5095172;28;20187;-71
2022/05/15 06:55:17;;;;;;;1.10;0.95;;;24.60;99.90;25.40;101872.00;;;;5116246;28;20639;-71
2022/05/15 06:57:44;;;;;;;0.40;0.40;;;24.40;99.90;23.70;101897.00;;;;5098847;28;20176;-71
2022/05/15 07:00:27;;;;;;;0.63;0.63;;;24.50;99.90;24.90;101889.00;;;;5115951;28;20180;-71
2022/05/15 07:02:53;;;;;;;0.10;0.10;;;24.10;99.90;26.50;101895.00;;;;5099385;28;20208;-71
2022/05/15 07:05:30;;;;;;;0.43;0.43;;;25.30;99.90;25.80;101848.00;;;;5116243;28;20183;-70
2022/05/15 07:07:56;;;;;;;0.25;0.25;;;26.10;99.90;23.90;101850.00;;;;5116159;28;20172;-70
2022/05/15 07:10:24;;;;;;;0.25;0.25;;;24.20;99.90;25.30;101889.00;;;;5099106;28;20516;-71
2022/05/15 07:12:50;;;;;;;0.73;0.73;;;24.70;99.90;23.90;101884.00;;;;5116046;28;20197;-70
2022/05/15 07:15:17;;;;;;;0.90;0.90;;;24.30;99.90;25.30;101885.00;;;;5099200;28;20180;-71
2022/05/15 07:17:48;;;;;;;0.10;0.10;;;24.70;99.90;26.20;101883.00;;;;5098872;28;20634;-71
2022/05/15 07:20:14;;;;;;;0.22;0.22;;;25.80;99.90;26.60;101880.00;;;;5098158;28;20181;-71
2022/05/15 07:22:40;;;;;;;3.40;1.45;;;26.30;99.90;26.00;101883.00;;;;5097966;28;20235;-71
2022/05/15 07:25:06;;;;;;;0.25;0.25;;;25.80;99.90;26.10;101882.00;;;;5115864;28;20168;-71
2022/05/15 07:27:32;;;;;;;0.57;0.57;;;25.70;99.90;25.60;101884.00;;;;5117143;27;20168;-72
2022/05/15 07:29:58;;;;;;;0.98;0.75;;;25.50;99.90;25.30;101883.00;;;;5098721;28;20176;-71
2022/05/15 07:32:24;;;;;;;6.00;2.65;;;25.20;99.90;25.20;101879.00;;;;5097839;28;20257;-71
2022/05/15 07:34:50;;;;;;;1.70;0.45;;;25.40;99.90;25.70;101848.00;;;;5115885;28;20184;-72
2022/05/15 07:37:17;;;;;;;0.75;0.75;;;25.30;99.90;24.70;101879.00;;;;5098609;28;20627;-72
2022/05/15 07:39:43;;;;;;;1.90;0.80;;;25.00;99.90;25.20;101875.00;;;;5114719;28;20822;-70
2022/05/15 07:42:09;;;;;;;1.60;0.50;;;25.10;99.90;26.60;101878.00;;;;5115358;28;20214;-71
2022/05/15 07:44:35;;;;;;;2.17;1.20;;;25.60;99.90;25.50;101876.00;;;;5097012;28;20172;-70
2022/05/15 07:47:05;;;;;;;0.85;0.85;;;25.70;99.90;26.40;101872.00;;;;5114562;28;20188;-73
2022/05/15 07:49:37;;;;;;;0.93;0.82;;;25.90;99.90;24.90;101876.00;;;;5098430;28;20176;-71
2022/05/15 07:52:03;;;;;;;0.10;0.10;;;25.00;99.90;25.70;101877.00;;;;5113375;28;20214;-73
2022/05/15 07:54:33;;;;;;;7.93;1.38;;;25.50;99.90;26.50;101869.00;;;;5098363;28;20172;-70
2022/05/15 07:57:01;;;;;;;0.47;0.47;;;25.90;99.90;24.90;101838.00;;;;5115091;28;20183;-72
2022/05/15 07:59:30;;;;;;;0.15;0.15;;;25.60;99.90;26.20;101870.00;;;;5111512;28;20192;-72
2022/05/15 08:01:59;;;;;;;1.45;1.45;;;26.00;99.90;27.60;101870.00;;;;5089492;28;20245;-71
2022/05/15 08:04:28;;;;;;;0.10;0.10;;;26.70;99.90;26.80;101848.00;;;;5095133;28;20192;-70
2022/05/15 08:09:49;;;;;;;0.10;0.10;;;27.50;99.90;27.20;101846.00;;;;5108445;28;20206;-71
2022/05/15 08:12:21;;;;;;;0.73;0.73;;;26.80;99.90;25.80;101851.00;;;;5114808;28;20203;-71
2022/05/15 08:14:47;;;;;;;0.63;0.40;;;26.40;99.90;26.00;101842.00;;;;5097433;28;20208;-71
2022/05/15 08:17:21;;;;;;;1.00;0.55;;;26.10;99.90;26.90;101829.00;;;;5098212;28;20684;-71
2022/05/15 08:25:24;;;;;;;6.75;0.47;;;25.50;99.90;25.30;101852.00;;;;5114898;28;20195;-71
2022/05/15 08:27:56;;;;;;;2.70;2.50;;;25.30;99.90;27.00;101847.00;;;;5097645;28;20195;-72
2022/05/15 08:30:24;;;;;;;7.03;2.47;;;26.10;99.90;26.80;101824.00;;;;5097068;28;20191;-71
2022/05/15 08:33:01;;;;;;;1.25;1.17;;;26.50;99.90;25.20;101827.00;;;;5092693;28;20200;-68
2022/05/15 08:35:34;;;;;;;0.65;0.65;;;25.20;99.90;25.70;101812.00;;;;5095434;28;20187;-73
2022/05/15 08:38:00;;;;;;;3.20;1.48;;;25.60;99.90;26.40;101820.00;;;;5094866;28;20180;-73
2022/05/15 08:40:53;;;;;;;1.48;1.38;;;25.90;99.90;27.00;101831.00;;;;5088049;28;20192;-73
2022/05/15 08:43:32;;;;;;;1.05;0.57;;;26.20;99.90;27.30;101820.00;;;;5093362;28;20212;-72
2022/05/15 08:46:16;;;;;;;0.40;0.30;;;26.90;99.90;26.80;101816.00;;;;5094000;28;20538;-72
2022/05/15 08:48:42;;;;;;;0.65;0.65;;;26.70;99.90;27.90;101807.00;;;;5086951;28;20196;-73
2022/05/15 08:51:13;;;;;;;1.73;1.63;;;27.10;99.40;27.60;101803.00;;;;5096360;28;20750;-72
2022/05/15 08:53:43;;;;;;;2.03;1.42;;;27.30;98.60;26.20;101755.00;;;;5093297;28;20616;-70
2022/05/15 08:56:12;;;;;;;1.52;1.42;;;26.40;99.00;26.60;101814.00;;;;5099932;28;20692;-78
2022/05/15 08:58:56;;;;;;;1.27;1.02;;;26.20;99.70;26.50;101819.00;;;;5096907;28;20275;-78
2022/05/15 09:01:42;;;;;;;1.83;1.35;;;26.70;99.50;26.90;101779.00;;;;5080504;28;20199;-74
2022/05/15 09:04:11;;;;;;;1.27;1.23;;;26.60;98.00;26.40;101804.00;;;;5113075;28;20210;-70
2022/05/15 09:07:09;;;;;;;0.10;0.10;;;26.60;97.80;27.10;101816.00;;;;5112287;28;20218;-70
2022/05/15 09:09:50;;;;;;;0.90;0.90;;;26.40;98.50;28.10;101802.00;;;;5095833;28;20192;-68
2022/05/15 09:12:35;;;;;;;2.28;2.13;;;27.30;96.50;27.80;101806.00;;;;5092500;28;20288;-69
2022/05/15 09:15:07;;;;;;;0.80;0.52;;;27.30;96.50;27.10;101789.00;;;;5074064;28;20254;-68
2022/05/15 09:18:03;;;;;;;1.00;1.00;;;27.10;95.90;28.00;101813.00;;;;5074510;28;20658;-69
2022/05/15 09:20:59;;;;;;;1.13;0.98;;;27.30;95.90;27.90;101796.00;;;;5076650;28;20219;-66
2022/05/15 09:23:36;;;;;;;3.38;1.75;;;27.50;95.60;27.80;101815.00;;;;5092392;28;20193;-67
2022/05/15 09:26:26;;;;;;;0.70;0.43;;;27.60;94.30;27.70;101804.00;;;;5076599;28;20184;-69
2022/05/15 09:29:01;;;;;;;1.23;1.05;;;27.60;93.60;27.90;101804.00;;;;5075876;28;20181;-69
2022/05/15 09:31:44;;;;;;;3.13;1.02;;;27.50;94.40;25.80;101828.00;;;;5092979;28;20204;-71
2022/05/15 09:34:26;;;;;;;0.68;0.60;;;26.60;93.80;27.20;101780.00;;;;5092679;28;20663;-69
2022/05/15 09:38:26;;;;;;;1.35;1.25;;;26.60;95.00;27.60;101811.00;;;;5092060;28;20177;-69
2022/05/15 09:39:52;;;;;;;0.40;0.40;;;27.20;93.50;27.30;101808.00;;;;5092413;28;20193;-76
2022/05/15 09:45:08;;;;;;;0.10;0.10;;;27.10;93.30;27.30;101802.00;;;;5100120;28;20214;-75
2022/05/15 09:47:38;;;;;;;2.42;0.65;;;26.90;92.60;27.60;101806.00;;;;5113281;28;20651;-73
2022/05/15 09:50:14;;;;;;;0.52;0.52;;;27.30;91.40;27.40;101799.00;;;;5095888;28;20275;-73
2022/05/15 09:52:42;;;;;;;0.30;0.30;;;27.50;91.30;28.30;101795.00;;;;5076382;28;20187;-73
2022/05/15 09:55:18;;;;;;;0.77;0.70;;;27.70;90.90;28.40;101766.00;;;;5103609;28;20180;-74
2022/05/15 09:58:06;;;;;;;10.75;2.10;;;28.10;90.60;28.60;101789.00;;;;5094039;28;20157;-73
2022/05/15 10:00:38;;;;;;;3.72;1.27;;;28.00;90.70;29.00;101791.00;;;;5092291;28;20161;-73
2022/05/15 10:03:25;;;;;;;0.50;0.50;;;28.50;90.60;28.60;101755.00;;;;5092500;28;20192;-73
2022/05/15 10:06:06;;;;;;;1.20;0.80;;;28.40;90.20;28.30;101785.00;;;;5075387;28;20181;-73
2022/05/15 10:08:33;;;;;;;0.20;0.20;;;27.90;90.80;28.80;101746.00;;;;5092830;28;20185;-74
2022/05/15 10:11:04;;;;;;;0.88;0.75;;;28.20;90.80;29.10;101771.00;;;;5075364;28;20180;-73
2022/05/15 10:13:36;;;;;;;0.70;0.70;;;28.40;90.50;29.30;101753.00;;;;5075444;28;20701;-74
2022/05/15 10:16:32;;;;;;;0.40;0.40;;;28.90;90.30;28.00;101761.00;;;;5091624;28;20173;-74
2022/05/15 10:19:33;;;;;;;0.40;0.40;;;28.80;90.30;29.10;101762.00;;;;5040208;28;20733;-74
2022/05/15 10:33:17;;;;;;;0.93;0.73;;;27.60;90.50;27.30;101757.00;;;;5070629;28;20559;-64
2022/05/15 10:36:14;;;;;;;0.95;0.95;;;27.50;90.90;27.40;101759.00;;;;5066139;28;20193;-69
2022/05/15 10:38:54;;;;;;;2.30;1.42;;;27.50;90.70;27.10;101728.00;;;;5049230;28;20527;-81
2022/05/15 10:42:13;;;;;;;1.65;1.48;;;27.50;90.60;28.20;101743.00;;;;5049098;28;20178;-75
2022/05/15 10:45:04;;;;;;;0.60;0.60;;;27.70;90.30;28.20;101727.00;;;;5030869;28;20227;-78
2022/05/15 10:48:13;;;;;;;0.43;0.43;;;28.00;89.10;28.90;101728.00;;;;5012002;28;20202;-79
2022/05/15 10:50:59;;;;;;;1.38;0.50;;;28.40;90.30;28.00;101730.00;;;;5029156;28;20290;-74
2022/05/15 11:00:02;;;;;;;0.93;0.90;;;28.80;89.00;30.10;101703.00;;;;5042058;28;20676;-81
2022/05/15 11:03:11;;;;;;;1.27;0.75;;;29.60;87.30;29.30;101706.00;;;;5030137;28;20179;-68
2022/05/15 11:06:31;;;;;;;0.43;0.20;;;29.60;86.70;29.90;101694.00;;;;5028955;28;20232;-73
2022/05/15 11:09:47;;;;;;;1.13;0.88;;;29.50;85.30;29.20;101702.00;;;;5029819;28;20184;-74
2022/05/15 11:12:24;;;;;;;0.60;0.60;;;29.10;84.00;28.90;101694.00;;;;5033023;28;20218;-74
2022/05/15 11:15:57;;;;;;;0.60;0.45;;;28.70;84.40;27.30;101696.00;;;;5037546;28;20273;-74
2022/05/15 11:19:11;;;;;;;2.10;0.43;;;27.90;86.60;28.30;101704.00;;;;5047334;28;20209;-76
2022/05/15 11:21:54;;;;;;;0.40;0.30;;;27.90;87.00;29.10;101652.00;;;;5020667;28;20203;-74
2022/05/15 11:24:41;;;;;;;0.57;0.57;;;28.60;86.10;29.40;101674.00;;;;5027310;28;20550;-75
2022/05/15 11:27:19;;;;;;;0.93;0.88;;;29.10;83.20;29.40;101663.00;;;;5028553;28;20168;-80
2022/05/15 11:29:50;;;;;;;1.00;0.32;;;29.50;83.10;28.80;101685.00;;;;5034791;28;20642;-74
2022/05/15 11:32:34;;;;;;;0.55;0.55;;;29.20;83.70;29.50;101657.00;;;;5039485;28;20250;-70
2022/05/15 11:35:04;;;;;;;0.50;0.50;;;29.30;80.80;29.50;101662.00;;;;5028430;28;20626;-74
2022/05/15 11:37:39;;;;;;;2.10;0.40;;;29.40;81.00;30.00;101671.00;;;;5029607;28;20183;-72
2022/05/15 11:40:46;;;;;;;0.20;0.20;;;29.80;82.00;29.20;101654.00;;;;5044256;28;20628;-72
2022/05/15 11:43:27;;;;;;;0.95;0.63;;;29.10;81.60;28.90;101664.00;;;;5020678;28;20198;-72